sensor_id;sensor_type;location;lat;lon;timestamp;pressure;altitude;pressure_sealevel;temperature;humidity
11124;BME280;5616;42.692;23.312;2023-05-08T00:00:10;95275.34;;;15.12;63.81
11124;BME280;5616;42.692;23.312;2023-05-08T00:02:39;95275.34;;;15.19;63.68
11124;BME280;5616;42.692;23.312;2023-05-08T00:05:06;95284.13;;;15.24;63.33
11124;BME280;5616;42.692;23.312;2023-05-08T00:07:34;95277.31;;;15.30;63.06
11124;BME280;5616;42.692;23.312;2023-05-08T00:10:01;95270.50;;;15.22;62.96
11124;BME280;5616;42.692;23.312;2023-05-08T00:12:29;95282.31;;;15.31;62.94
11124;BME280;5616;42.692;23.312;2023-05-08T00:14:56;95277.50;;;15.28;63.21
11124;BME280;5616;42.692;23.312;2023-05-08T00:17:23;95277.72;;;15.20;63.44
11124;BME280;5616;42.692;23.312;2023-05-08T00:19:50;95280.16;;;15.15;63.24
11124;BME280;5616;42.692;23.312;2023-05-08T00:22:17;95289.41;;;14.98;64.35
11124;BME280;5616;42.692;23.312;2023-05-08T00:24:44;95291.38;;;15.03;64.13
11124;BME280;5616;42.692;23.312;2023-05-08T00:27:11;95285.22;;;14.91;64.25
11124;BME280;5616;42.692;23.312;2023-05-08T00:29:39;95291.00;;;14.93;64.29
11124;BME280;5616;42.692;23.312;2023-05-08T00:32:06;95295.78;;;14.89;64.27
11124;BME280;5616;42.692;23.312;2023-05-08T00:34:33;95303.78;;;14.81;64.52
11124;BME280;5616;42.692;23.312;2023-05-08T00:37:00;95303.81;;;14.88;64.04
11124;BME280;5616;42.692;23.312;2023-05-08T00:39:28;95284.19;;;14.92;63.76
11124;BME280;5616;42.692;23.312;2023-05-08T00:41:55;95304.16;;;15.04;63.83
11124;BME280;5616;42.692;23.312;2023-05-08T00:44:21;95296.19;;;14.99;64.02
11124;BME280;5616;42.692;23.312;2023-05-08T00:46:49;95295.97;;;14.94;64.02
11124;BME280;5616;42.692;23.312;2023-05-08T00:49:17;95299.00;;;14.98;63.94
11124;BME280;5616;42.692;23.312;2023-05-08T00:51:45;95297.78;;;14.94;64.78
11124;BME280;5616;42.692;23.312;2023-05-08T00:54:14;95296.59;;;14.90;65.35
11124;BME280;5616;42.692;23.312;2023-05-08T00:56:41;95297.97;;;14.86;67.30
11124;BME280;5616;42.692;23.312;2023-05-08T00:59:10;95300.81;;;14.71;68.57
11124;BME280;5616;42.692;23.312;2023-05-08T01:01:39;95304.59;;;14.75;68.67
11124;BME280;5616;42.692;23.312;2023-05-08T01:04:08;95312.19;;;14.57;69.86
11124;BME280;5616;42.692;23.312;2023-05-08T01:06:35;95307.00;;;14.50;70.42
11124;BME280;5616;42.692;23.312;2023-05-08T01:09:02;95306.81;;;14.58;70.12
11124;BME280;5616;42.692;23.312;2023-05-08T01:11:33;95305.00;;;14.33;71.53
11124;BME280;5616;42.692;23.312;2023-05-08T01:14:08;95306.31;;;14.09;72.88
11124;BME280;5616;42.692;23.312;2023-05-08T01:16:42;95311.13;;;14.25;72.55
11124;BME280;5616;42.692;23.312;2023-05-08T01:19:34;95311.50;;;14.09;72.40
11124;BME280;5616;42.692;23.312;2023-05-08T01:22:11;95309.06;;;13.94;74.16
11124;BME280;5616;42.692;23.312;2023-05-08T01:25:07;95317.22;;;13.85;73.65
11124;BME280;5616;42.692;23.312;2023-05-08T01:27:58;95305.88;;;13.99;72.69
11124;BME280;5616;42.692;23.312;2023-05-08T01:30:47;95306.50;;;14.01;70.77
11124;BME280;5616;42.692;23.312;2023-05-08T01:33:24;95306.84;;;13.91;70.30
11124;BME280;5616;42.692;23.312;2023-05-08T01:35:58;95306.88;;;13.98;70.75
11124;BME280;5616;42.692;23.312;2023-05-08T01:38:30;95310.50;;;14.10;70.50
11124;BME280;5616;42.692;23.312;2023-05-08T01:41:04;95301.50;;;14.06;71.73
11124;BME280;5616;42.692;23.312;2023-05-08T01:43:49;95301.13;;;14.16;71.86
11124;BME280;5616;42.692;23.312;2023-05-08T01:46:21;95300.53;;;14.14;70.88
11124;BME280;5616;42.692;23.312;2023-05-08T01:48:58;95299.09;;;13.98;71.70
11124;BME280;5616;42.692;23.312;2023-05-08T01:51:27;95292.69;;;13.94;72.12
11124;BME280;5616;42.692;23.312;2023-05-08T01:53:58;95289.84;;;13.76;73.14
11124;BME280;5616;42.692;23.312;2023-05-08T01:56:27;95299.03;;;13.78;74.09
11124;BME280;5616;42.692;23.312;2023-05-08T01:58:56;95293.19;;;13.70;75.13
11124;BME280;5616;42.692;23.312;2023-05-08T02:01:24;95295.19;;;13.68;75.08
11124;BME280;5616;42.692;23.312;2023-05-08T02:03:55;95300.97;;;13.63;75.35
11124;BME280;5616;42.692;23.312;2023-05-08T02:06:24;95291.22;;;13.72;74.86
11124;BME280;5616;42.692;23.312;2023-05-08T02:08:53;95297.03;;;13.80;74.87
11124;BME280;5616;42.692;23.312;2023-05-08T02:11:22;95298.84;;;13.80;74.47
11124;BME280;5616;42.692;23.312;2023-05-08T02:13:50;95292.09;;;13.85;74.81
11124;BME280;5616;42.692;23.312;2023-05-08T02:16:18;95300.75;;;13.65;74.90
11124;BME280;5616;42.692;23.312;2023-05-08T02:18:50;95299.78;;;13.66;75.02
11124;BME280;5616;42.692;23.312;2023-05-08T02:21:19;95296.75;;;13.56;75.28
11124;BME280;5616;42.692;23.312;2023-05-08T02:23:48;95305.31;;;13.49;76.25
11124;BME280;5616;42.692;23.312;2023-05-08T02:26:16;95295.47;;;13.38;76.42
11124;BME280;5616;42.692;23.312;2023-05-08T02:28:44;95302.47;;;13.38;76.95
11124;BME280;5616;42.692;23.312;2023-05-08T02:31:12;95302.72;;;13.49;76.23
11124;BME280;5616;42.692;23.312;2023-05-08T02:33:41;95304.31;;;13.51;76.39
11124;BME280;5616;42.692;23.312;2023-05-08T02:36:10;95303.13;;;13.53;76.85
11124;BME280;5616;42.692;23.312;2023-05-08T02:38:43;95299.50;;;13.47;77.14
11124;BME280;5616;42.692;23.312;2023-05-08T02:41:11;95304.84;;;13.39;77.23
11124;BME280;5616;42.692;23.312;2023-05-08T02:43:39;95299.03;;;13.31;77.54
11124;BME280;5616;42.692;23.312;2023-05-08T02:46:11;95309.84;;;13.41;77.12
11124;BME280;5616;42.692;23.312;2023-05-08T02:48:45;95307.91;;;13.49;76.72
11124;BME280;5616;42.692;23.312;2023-05-08T02:51:17;95316.66;;;13.48;76.96
11124;BME280;5616;42.692;23.312;2023-05-08T02:53:54;95313.13;;;13.56;76.54
11124;BME280;5616;42.692;23.312;2023-05-08T02:56:30;95318.72;;;13.60;75.58
11124;BME280;5616;42.692;23.312;2023-05-08T02:59:01;95309.94;;;13.61;75.67
11124;BME280;5616;42.692;23.312;2023-05-08T03:01:45;95320.31;;;13.61;75.95
11124;BME280;5616;42.692;23.312;2023-05-08T03:04:18;95318.31;;;13.56;75.58
11124;BME280;5616;42.692;23.312;2023-05-08T03:06:48;95298.72;;;13.47;75.71
11124;BME280;5616;42.692;23.312;2023-05-08T03:09:18;95311.03;;;13.38;77.30
11124;BME280;5616;42.692;23.312;2023-05-08T03:11:48;95313.16;;;13.22;77.69
11124;BME280;5616;42.692;23.312;2023-05-08T03:14:19;95310.78;;;13.27;77.73
11124;BME280;5616;42.692;23.312;2023-05-08T03:16:49;95310.25;;;13.38;77.18
11124;BME280;5616;42.692;23.312;2023-05-08T03:19:21;95313.31;;;13.20;78.31
11124;BME280;5616;42.692;23.312;2023-05-08T03:21:51;95322.25;;;13.11;78.15
11124;BME280;5616;42.692;23.312;2023-05-08T03:24:22;95306.34;;;13.14;78.17
11124;BME280;5616;42.692;23.312;2023-05-08T03:26:51;95319.75;;;13.24;78.10
11124;BME280;5616;42.692;23.312;2023-05-08T03:29:19;95318.19;;;13.02;79.06
11124;BME280;5616;42.692;23.312;2023-05-08T03:31:46;95320.75;;;13.02;78.64
11124;BME280;5616;42.692;23.312;2023-05-08T03:34:15;95332.66;;;13.18;78.22
11124;BME280;5616;42.692;23.312;2023-05-08T03:36:43;95327.25;;;13.13;78.45
11124;BME280;5616;42.692;23.312;2023-05-08T03:39:10;95327.94;;;13.00;79.06
11124;BME280;5616;42.692;23.312;2023-05-08T03:41:39;95335.28;;;12.97;79.20
11124;BME280;5616;42.692;23.312;2023-05-08T03:44:06;95323.53;;;13.22;77.62
11124;BME280;5616;42.692;23.312;2023-05-08T03:46:34;95323.75;;;13.27;74.52
11124;BME280;5616;42.692;23.312;2023-05-08T03:49:03;95320.38;;;13.33;73.77
11124;BME280;5616;42.692;23.312;2023-05-08T03:51:30;95330.41;;;13.42;73.75
11124;BME280;5616;42.692;23.312;2023-05-08T03:53:57;95324.00;;;13.38;72.42
11124;BME280;5616;42.692;23.312;2023-05-08T03:56:24;95329.34;;;13.30;73.56
11124;BME280;5616;42.692;23.312;2023-05-08T03:59:00;95336.38;;;13.36;73.22
11124;BME280;5616;42.692;23.312;2023-05-08T04:01:37;95332.50;;;13.60;72.62
11124;BME280;5616;42.692;23.312;2023-05-08T04:04:07;95336.69;;;13.61;72.07
11124;BME280;5616;42.692;23.312;2023-05-08T04:06:39;95335.19;;;13.80;71.13
11124;BME280;5616;42.692;23.312;2023-05-08T04:09:07;95338.59;;;13.93;71.24
11124;BME280;5616;42.692;23.312;2023-05-08T04:11:41;95336.25;;;14.05;70.14
11124;BME280;5616;42.692;23.312;2023-05-08T04:14:15;95346.03;;;14.03;69.82
11124;BME280;5616;42.692;23.312;2023-05-08T04:16:47;95343.28;;;14.11;68.08
11124;BME280;5616;42.692;23.312;2023-05-08T04:19:18;95346.88;;;14.17;67.85
11124;BME280;5616;42.692;23.312;2023-05-08T04:21:47;95343.22;;;14.04;68.71
11124;BME280;5616;42.692;23.312;2023-05-08T04:24:16;95351.03;;;14.04;70.23
11124;BME280;5616;42.692;23.312;2023-05-08T04:26:45;95347.69;;;14.24;69.04
11124;BME280;5616;42.692;23.312;2023-05-08T04:29:15;95345.66;;;14.13;68.46
11124;BME280;5616;42.692;23.312;2023-05-08T04:31:43;95356.28;;;14.24;68.45
11124;BME280;5616;42.692;23.312;2023-05-08T04:34:11;95354.34;;;14.39;68.64
11124;BME280;5616;42.692;23.312;2023-05-08T04:36:38;95352.69;;;14.25;69.26
11124;BME280;5616;42.692;23.312;2023-05-08T04:39:06;95350.88;;;14.19;69.26
11124;BME280;5616;42.692;23.312;2023-05-08T04:41:33;95344.50;;;14.28;68.72
11124;BME280;5616;42.692;23.312;2023-05-08T04:44:01;95336.69;;;14.28;69.62
11124;BME280;5616;42.692;23.312;2023-05-08T04:46:30;95348.94;;;14.34;69.31
11124;BME280;5616;42.692;23.312;2023-05-08T04:48:57;95340.16;;;14.35;69.64
11124;BME280;5616;42.692;23.312;2023-05-08T04:51:27;95338.75;;;14.39;68.86
11124;BME280;5616;42.692;23.312;2023-05-08T04:53:54;95335.78;;;14.68;68.44
11124;BME280;5616;42.692;23.312;2023-05-08T04:56:21;95336.19;;;14.85;67.23
11124;BME280;5616;42.692;23.312;2023-05-08T04:58:48;95335.97;;;15.00;66.53
11124;BME280;5616;42.692;23.312;2023-05-08T05:01:16;95341.38;;;15.24;65.18
11124;BME280;5616;42.692;23.312;2023-05-08T05:03:44;95342.94;;;15.25;65.71
11124;BME280;5616;42.692;23.312;2023-05-08T05:06:11;95340.78;;;15.16;65.46
11124;BME280;5616;42.692;23.312;2023-05-08T05:08:38;95337.16;;;15.30;65.50
11124;BME280;5616;42.692;23.312;2023-05-08T05:11:04;95327.13;;;15.53;64.50
11124;BME280;5616;42.692;23.312;2023-05-08T05:13:32;95323.09;;;15.44;65.57
11124;BME280;5616;42.692;23.312;2023-05-08T05:15:59;95316.50;;;15.55;65.01
11124;BME280;5616;42.692;23.312;2023-05-08T05:18:25;95328.03;;;15.78;63.91
11124;BME280;5616;42.692;23.312;2023-05-08T05:20:56;95324.84;;;15.76;63.73
11124;BME280;5616;42.692;23.312;2023-05-08T05:23:23;95318.34;;;15.92;63.32
11124;BME280;5616;42.692;23.312;2023-05-08T05:25:50;95319.44;;;16.16;61.68
11124;BME280;5616;42.692;23.312;2023-05-08T05:28:17;95316.59;;;16.24;61.49
11124;BME280;5616;42.692;23.312;2023-05-08T05:30:45;95321.63;;;16.50;61.01
11124;BME280;5616;42.692;23.312;2023-05-08T05:33:12;95326.28;;;16.73;59.93
11124;BME280;5616;42.692;23.312;2023-05-08T05:35:39;95323.50;;;16.74;59.40
11124;BME280;5616;42.692;23.312;2023-05-08T05:38:07;95322.66;;;16.80;59.28
11124;BME280;5616;42.692;23.312;2023-05-08T05:40:34;95327.97;;;16.92;58.32
11124;BME280;5616;42.692;23.312;2023-05-08T05:43:01;95317.81;;;17.02;57.91
11124;BME280;5616;42.692;23.312;2023-05-08T05:45:28;95323.16;;;17.13;57.36
11124;BME280;5616;42.692;23.312;2023-05-08T05:47:56;95329.84;;;17.28;57.00
11124;BME280;5616;42.692;23.312;2023-05-08T05:50:24;95318.75;;;17.32;57.19
11124;BME280;5616;42.692;23.312;2023-05-08T05:52:53;95324.78;;;17.51;56.30
11124;BME280;5616;42.692;23.312;2023-05-08T05:55:21;95324.81;;;17.69;55.34
11124;BME280;5616;42.692;23.312;2023-05-08T05:57:48;95314.22;;;17.82;54.84
11124;BME280;5616;42.692;23.312;2023-05-08T06:00:16;95319.78;;;18.04;54.70
11124;BME280;5616;42.692;23.312;2023-05-08T06:02:49;95309.41;;;18.27;53.48
11124;BME280;5616;42.692;23.312;2023-05-08T06:05:16;95302.03;;;18.54;53.13
11124;BME280;5616;42.692;23.312;2023-05-08T06:07:44;95302.59;;;18.56;54.26
11124;BME280;5616;42.692;23.312;2023-05-08T06:10:11;95306.63;;;18.40;53.68
11124;BME280;5616;42.692;23.312;2023-05-08T06:12:39;95303.72;;;18.48;53.72
11124;BME280;5616;42.692;23.312;2023-05-08T06:15:08;95299.31;;;18.72;53.61
11124;BME280;5616;42.692;23.312;2023-05-08T06:17:35;95302.50;;;18.44;53.06
11124;BME280;5616;42.692;23.312;2023-05-08T06:20:03;95303.31;;;18.86;52.46
11124;BME280;5616;42.692;23.312;2023-05-08T06:22:30;95302.28;;;19.10;51.60
11124;BME280;5616;42.692;23.312;2023-05-08T06:24:56;95305.25;;;18.90;51.76
11124;BME280;5616;42.692;23.312;2023-05-08T06:27:24;95300.03;;;19.14;51.08
11124;BME280;5616;42.692;23.312;2023-05-08T06:29:52;95303.22;;;19.39;50.65
11124;BME280;5616;42.692;23.312;2023-05-08T06:32:19;95300.84;;;19.49;51.03
11124;BME280;5616;42.692;23.312;2023-05-08T06:34:46;95295.47;;;19.44;50.25
11124;BME280;5616;42.692;23.312;2023-05-08T06:37:13;95311.53;;;19.36;50.28
11124;BME280;5616;42.692;23.312;2023-05-08T06:39:40;95311.31;;;19.49;49.99
11124;BME280;5616;42.692;23.312;2023-05-08T06:42:07;95305.41;;;19.93;49.08
11124;BME280;5616;42.692;23.312;2023-05-08T06:44:36;95304.44;;;20.39;48.42
11124;BME280;5616;42.692;23.312;2023-05-08T06:47:06;95301.50;;;20.36;47.47
11124;BME280;5616;42.692;23.312;2023-05-08T06:49:35;95300.50;;;20.87;46.36
11124;BME280;5616;42.692;23.312;2023-05-08T06:52:02;95306.22;;;20.84;46.05
11124;BME280;5616;42.692;23.312;2023-05-08T06:54:29;95297.81;;;20.98;47.00
11124;BME280;5616;42.692;23.312;2023-05-08T06:56:58;95304.97;;;21.19;47.40
11124;BME280;5616;42.692;23.312;2023-05-08T06:59:25;95300.97;;;20.84;47.63
11124;BME280;5616;42.692;23.312;2023-05-08T07:01:52;95308.88;;;21.17;47.92
11124;BME280;5616;42.692;23.312;2023-05-08T07:04:20;95314.75;;;21.41;45.74
11124;BME280;5616;42.692;23.312;2023-05-08T07:06:47;95311.41;;;21.28;47.36
11124;BME280;5616;42.692;23.312;2023-05-08T07:09:13;95307.59;;;21.36;46.59
11124;BME280;5616;42.692;23.312;2023-05-08T07:11:41;95313.63;;;20.87;48.08
11124;BME280;5616;42.692;23.312;2023-05-08T07:14:08;95313.25;;;21.11;47.86
11124;BME280;5616;42.692;23.312;2023-05-08T07:16:34;95309.66;;;20.67;48.51
11124;BME280;5616;42.692;23.312;2023-05-08T07:19:02;95313.22;;;20.95;47.24
11124;BME280;5616;42.692;23.312;2023-05-08T07:21:30;95311.91;;;21.25;46.99
11124;BME280;5616;42.692;23.312;2023-05-08T07:23:57;95310.53;;;21.23;47.90
11124;BME280;5616;42.692;23.312;2023-05-08T07:26:24;95310.38;;;21.29;48.75
11124;BME280;5616;42.692;23.312;2023-05-08T07:28:50;95312.59;;;21.21;48.48
11124;BME280;5616;42.692;23.312;2023-05-08T07:31:18;95310.06;;;21.26;48.06
11124;BME280;5616;42.692;23.312;2023-05-08T07:33:45;95304.59;;;21.11;47.65
11124;BME280;5616;42.692;23.312;2023-05-08T07:36:12;95309.97;;;21.38;47.80
11124;BME280;5616;42.692;23.312;2023-05-08T07:38:40;95306.94;;;21.67;45.83
11124;BME280;5616;42.692;23.312;2023-05-08T07:41:07;95311.13;;;22.07;45.95
11124;BME280;5616;42.692;23.312;2023-05-08T07:43:34;95307.16;;;22.04;51.24
11124;BME280;5616;42.692;23.312;2023-05-08T07:46:01;95308.56;;;22.12;46.05
11124;BME280;5616;42.692;23.312;2023-05-08T07:48:28;95311.88;;;22.55;43.82
11124;BME280;5616;42.692;23.312;2023-05-08T07:50:55;95314.84;;;22.86;44.34
11124;BME280;5616;42.692;23.312;2023-05-08T07:53:22;95320.16;;;23.69;42.13
11124;BME280;5616;42.692;23.312;2023-05-08T07:55:50;95313.66;;;24.79;39.66
11124;BME280;5616;42.692;23.312;2023-05-08T07:58:17;95308.22;;;25.90;36.71
11124;BME280;5616;42.692;23.312;2023-05-08T08:00:43;95313.75;;;26.53;35.38
11124;BME280;5616;42.692;23.312;2023-05-08T08:03:10;95312.31;;;27.43;33.92
11124;BME280;5616;42.692;23.312;2023-05-08T08:05:37;95315.28;;;27.31;33.05
11124;BME280;5616;42.692;23.312;2023-05-08T08:08:04;95316.50;;;26.82;35.36
11124;BME280;5616;42.692;23.312;2023-05-08T08:10:31;95314.53;;;27.02;34.39
11124;BME280;5616;42.692;23.312;2023-05-08T08:12:59;95311.81;;;27.88;34.21
11124;BME280;5616;42.692;23.312;2023-05-08T08:15:27;95318.00;;;28.26;33.44
11124;BME280;5616;42.692;23.312;2023-05-08T08:17:54;95311.34;;;28.47;33.12
11124;BME280;5616;42.692;23.312;2023-05-08T08:20:21;95310.34;;;28.01;33.44
11124;BME280;5616;42.692;23.312;2023-05-08T08:22:47;95306.41;;;27.75;34.48
11124;BME280;5616;42.692;23.312;2023-05-08T08:25:14;95309.03;;;27.22;35.53
11124;BME280;5616;42.692;23.312;2023-05-08T08:27:42;95307.19;;;26.89;36.14
11124;BME280;5616;42.692;23.312;2023-05-08T08:30:10;95312.97;;;26.57;35.95
11124;BME280;5616;42.692;23.312;2023-05-08T08:32:37;95307.34;;;26.64;35.84
11124;BME280;5616;42.692;23.312;2023-05-08T08:35:04;95299.94;;;26.17;36.98
11124;BME280;5616;42.692;23.312;2023-05-08T08:37:31;95295.19;;;26.09;36.59
11124;BME280;5616;42.692;23.312;2023-05-08T08:39:59;95290.44;;;26.06;38.36
11124;BME280;5616;42.692;23.312;2023-05-08T08:42:25;95288.53;;;25.32;39.81
11124;BME280;5616;42.692;23.312;2023-05-08T08:44:52;95288.28;;;25.19;39.62
11124;BME280;5616;42.692;23.312;2023-05-08T08:47:26;95284.84;;;25.18;41.27
11124;BME280;5616;42.692;23.312;2023-05-08T08:49:53;95284.34;;;25.06;41.43
11124;BME280;5616;42.692;23.312;2023-05-08T08:52:25;95271.66;;;24.83;40.79
11124;BME280;5616;42.692;23.312;2023-05-08T08:54:59;95267.41;;;24.62;42.04
11124;BME280;5616;42.692;23.312;2023-05-08T08:57:27;95267.94;;;24.54;41.24
11124;BME280;5616;42.692;23.312;2023-05-08T08:59:58;95264.78;;;24.82;40.18
11124;BME280;5616;42.692;23.312;2023-05-08T09:02:30;95257.88;;;24.66;40.10
11124;BME280;5616;42.692;23.312;2023-05-08T09:04:57;95260.81;;;24.49;40.96
11124;BME280;5616;42.692;23.312;2023-05-08T09:07:24;95261.72;;;24.08;42.75
11124;BME280;5616;42.692;23.312;2023-05-08T09:09:52;95254.94;;;23.55;43.93
11124;BME280;5616;42.692;23.312;2023-05-08T09:12:18;95251.84;;;23.21;43.77
11124;BME280;5616;42.692;23.312;2023-05-08T09:14:45;95251.31;;;23.19;44.48
11124;BME280;5616;42.692;23.312;2023-05-08T09:17:12;95240.00;;;22.82;45.98
11124;BME280;5616;42.692;23.312;2023-05-08T09:19:41;95234.97;;;22.75;47.02
11124;BME280;5616;42.692;23.312;2023-05-08T09:22:08;95225.72;;;22.73;46.55
11124;BME280;5616;42.692;23.312;2023-05-08T09:24:54;95219.38;;;22.42;46.63
11124;BME280;5616;42.692;23.312;2023-05-08T09:27:22;95215.09;;;22.31;47.85
11124;BME280;5616;42.692;23.312;2023-05-08T09:30:00;95219.84;;;22.34;46.97
11124;BME280;5616;42.692;23.312;2023-05-08T09:32:27;95223.78;;;22.31;47.58
11124;BME280;5616;42.692;23.312;2023-05-08T09:34:56;95235.78;;;22.49;46.77
11124;BME280;5616;42.692;23.312;2023-05-08T09:37:24;95235.44;;;22.67;46.73
11124;BME280;5616;42.692;23.312;2023-05-08T09:39:51;95241.34;;;22.84;46.01
11124;BME280;5616;42.692;23.312;2023-05-08T09:42:17;95246.13;;;22.92;46.28
11124;BME280;5616;42.692;23.312;2023-05-08T09:44:46;95247.34;;;22.75;48.11
11124;BME280;5616;42.692;23.312;2023-05-08T09:47:14;95252.59;;;22.75;48.11
11124;BME280;5616;42.692;23.312;2023-05-08T09:49:56;95246.13;;;22.92;46.16
11124;BME280;5616;42.692;23.312;2023-05-08T09:52:23;95246.19;;;23.02;46.60
11124;BME280;5616;42.692;23.312;2023-05-08T09:54:56;95241.34;;;23.26;45.81
11124;BME280;5616;42.692;23.312;2023-05-08T09:57:23;95239.34;;;23.43;47.60
11124;BME280;5616;42.692;23.312;2023-05-08T09:59:50;95234.13;;;23.53;45.42
11124;BME280;5616;42.692;23.312;2023-05-08T10:02:17;95237.28;;;23.55;45.97
11124;BME280;5616;42.692;23.312;2023-05-08T10:04:45;95230.00;;;23.78;44.64
11124;BME280;5616;42.692;23.312;2023-05-08T10:07:13;95226.88;;;23.91;45.57
11124;BME280;5616;42.692;23.312;2023-05-08T10:09:56;95233.56;;;24.18;44.37
11124;BME280;5616;42.692;23.312;2023-05-08T10:12:25;95226.72;;;24.27;44.91
11124;BME280;5616;42.692;23.312;2023-05-08T10:14:51;95235.69;;;24.31;43.19
11124;BME280;5616;42.692;23.312;2023-05-08T10:17:24;95225.66;;;24.23;43.80
11124;BME280;5616;42.692;23.312;2023-05-08T10:19:57;95224.06;;;24.12;44.94
11124;BME280;5616;42.692;23.312;2023-05-08T10:22:27;95218.00;;;24.17;44.29
11124;BME280;5616;42.692;23.312;2023-05-08T10:24:56;95216.97;;;24.23;44.30
11124;BME280;5616;42.692;23.312;2023-05-08T10:27:30;95207.97;;;24.34;43.99
11124;BME280;5616;42.692;23.312;2023-05-08T10:30:02;95204.00;;;24.26;44.23
11124;BME280;5616;42.692;23.312;2023-05-08T10:32:36;95202.16;;;24.42;43.73
11124;BME280;5616;42.692;23.312;2023-05-08T10:35:07;95209.31;;;24.42;43.67
11124;BME280;5616;42.692;23.312;2023-05-08T10:37:37;95206.66;;;24.37;43.92
11124;BME280;5616;42.692;23.312;2023-05-08T10:40:07;95207.19;;;24.44;45.29
11124;BME280;5616;42.692;23.312;2023-05-08T10:42:35;95199.00;;;24.60;45.04
11124;BME280;5616;42.692;23.312;2023-05-08T10:45:04;95195.59;;;24.85;43.30
11124;BME280;5616;42.692;23.312;2023-05-08T10:47:40;95205.59;;;24.53;44.66
11124;BME280;5616;42.692;23.312;2023-05-08T10:50:33;95189.78;;;24.68;43.85
11124;BME280;5616;42.692;23.312;2023-05-08T10:53:06;95184.19;;;24.94;44.22
11124;BME280;5616;42.692;23.312;2023-05-08T10:55:35;95187.31;;;25.17;43.66
11124;BME280;5616;42.692;23.312;2023-05-08T10:58:04;95188.09;;;25.27;42.12
11124;BME280;5616;42.692;23.312;2023-05-08T11:00:45;95184.13;;;25.30;42.24
11124;BME280;5616;42.692;23.312;2023-05-08T11:03:23;95171.38;;;25.52;42.79
11124;BME280;5616;42.692;23.312;2023-05-08T11:05:51;95173.94;;;25.67;41.41
11124;BME280;5616;42.692;23.312;2023-05-08T11:08:20;95167.19;;;25.90;40.83
11124;BME280;5616;42.692;23.312;2023-05-08T11:11:01;95162.81;;;25.70;42.19
11124;BME280;5616;42.692;23.312;2023-05-08T11:13:32;95165.25;;;25.57;41.78
11124;BME280;5616;42.692;23.312;2023-05-08T11:16:00;95155.84;;;25.30;41.79
11124;BME280;5616;42.692;23.312;2023-05-08T11:18:27;95152.88;;;25.37;42.48
11124;BME280;5616;42.692;23.312;2023-05-08T11:20:55;95149.19;;;25.38;42.04
11124;BME280;5616;42.692;23.312;2023-05-08T11:23:25;95143.41;;;25.31;43.93
11124;BME280;5616;42.692;23.312;2023-05-08T11:25:59;95145.31;;;25.20;41.00
11124;BME280;5616;42.692;23.312;2023-05-08T11:28:26;95133.00;;;24.70;41.68
11124;BME280;5616;42.692;23.312;2023-05-08T11:30:54;95136.94;;;24.83;40.62
11124;BME280;5616;42.692;23.312;2023-05-08T11:33:21;95125.88;;;24.81;40.76
11124;BME280;5616;42.692;23.312;2023-05-08T11:35:52;95127.94;;;24.94;40.64
11124;BME280;5616;42.692;23.312;2023-05-08T11:38:25;95123.75;;;24.83;40.70
11124;BME280;5616;42.692;23.312;2023-05-08T11:40:54;95117.13;;;24.90;40.44
11124;BME280;5616;42.692;23.312;2023-05-08T11:46:14;95108.38;;;24.95;40.47
11124;BME280;5616;42.692;23.312;2023-05-08T11:48:41;95104.16;;;24.94;40.74
11124;BME280;5616;42.692;23.312;2023-05-08T11:51:08;95097.28;;;24.98;40.26
11124;BME280;5616;42.692;23.312;2023-05-08T11:53:37;95098.31;;;25.07;40.34
11124;BME280;5616;42.692;23.312;2023-05-08T11:56:04;95099.88;;;25.08;40.57
11124;BME280;5616;42.692;23.312;2023-05-08T11:58:31;95090.81;;;25.24;40.74
11124;BME280;5616;42.692;23.312;2023-05-08T12:00:58;95089.78;;;25.25;40.33
11124;BME280;5616;42.692;23.312;2023-05-08T12:03:25;95092.31;;;25.50;40.90
11124;BME280;5616;42.692;23.312;2023-05-08T12:05:55;95092.47;;;25.15;39.88
11124;BME280;5616;42.692;23.312;2023-05-08T12:08:22;95087.66;;;25.22;40.67
11124;BME280;5616;42.692;23.312;2023-05-08T12:10:52;95097.88;;;25.44;40.40
11124;BME280;5616;42.692;23.312;2023-05-08T12:13:20;95084.38;;;25.50;39.09
11124;BME280;5616;42.692;23.312;2023-05-08T12:15:48;95090.13;;;25.58;38.49
11124;BME280;5616;42.692;23.312;2023-05-08T12:18:16;95083.53;;;25.60;39.29
11124;BME280;5616;42.692;23.312;2023-05-08T12:20:43;95077.81;;;25.82;40.25
11124;BME280;5616;42.692;23.312;2023-05-08T12:23:10;95079.84;;;25.95;37.31
11124;BME280;5616;42.692;23.312;2023-05-08T12:25:38;95078.22;;;25.99;37.10
11124;BME280;5616;42.692;23.312;2023-05-08T12:28:07;95080.38;;;25.97;40.08
11124;BME280;5616;42.692;23.312;2023-05-08T12:30:34;95077.22;;;25.90;38.29
11124;BME280;5616;42.692;23.312;2023-05-08T12:33:02;95076.91;;;25.58;39.33
11124;BME280;5616;42.692;23.312;2023-05-08T12:35:30;95063.16;;;25.61;38.12
11124;BME280;5616;42.692;23.312;2023-05-08T12:38:00;95068.97;;;25.58;38.23
11124;BME280;5616;42.692;23.312;2023-05-08T12:40:30;95068.22;;;25.57;38.16
11124;BME280;5616;42.692;23.312;2023-05-08T12:42:59;95070.91;;;25.47;39.88
11124;BME280;5616;42.692;23.312;2023-05-08T12:45:29;95078.06;;;25.41;40.83
11124;BME280;5616;42.692;23.312;2023-05-08T12:47:59;95066.50;;;25.27;40.52
11124;BME280;5616;42.692;23.312;2023-05-08T12:50:26;95060.75;;;25.15;41.67
11124;BME280;5616;42.692;23.312;2023-05-08T12:53:00;95055.78;;;25.04;41.30
11124;BME280;5616;42.692;23.312;2023-05-08T12:55:29;95061.66;;;24.75;41.36
11124;BME280;5616;42.692;23.312;2023-05-08T12:58:01;95057.72;;;24.68;41.31
11124;BME280;5616;42.692;23.312;2023-05-08T13:00:36;95057.72;;;24.83;39.97
11124;BME280;5616;42.692;23.312;2023-05-08T13:03:04;95050.78;;;25.02;39.40
11124;BME280;5616;42.692;23.312;2023-05-08T13:05:33;95069.75;;;25.09;38.71
11124;BME280;5616;42.692;23.312;2023-05-08T13:08:00;95059.88;;;24.46;43.43
11124;BME280;5616;42.692;23.312;2023-05-08T13:10:42;95086.28;;;24.46;44.96
11124;BME280;5616;42.692;23.312;2023-05-08T13:13:10;95077.56;;;24.05;46.44